aviador You're here:

KMLS Decoded Metar

MILES CITY in MT, USA
Report Time2018-04-25 23:53:00
UTC Time2018-04-26 00:23:40
Flight Rules vfr VFR
Wind330° at 25 Gusting to 30 kt
W.Decomp.*RWY 30: 23.8 kt HW 7.7 kt RCW
RWY 04: 3.5 kt HW 24.8 kt LCW
W.Rank330° ranks 9
Current wind is above 330° avg. (11.6)
Visibility9999 m
Phenomena:N/A
Clouds:Broken 120 Hf
Expected CloudBase > 6,800 ft AGL from Temp-Dew spread
Ceiling12,000 ft
Temp18°C (ISA +8)
Dew Point01°C (32% RH)
AAT7.2°C
QNH1014 hPa
Density Alt3,648 ft
Elevation2,628 ft
Report Wrong Elevation
Raw Report
KMLS 252353Z AUTO 33025G30KT 10SM BKN120 18/01 A2994 RMK AO2 PK
WND 31030/2351 SLP142 T01780011 10211 20167 53008=

Extra information for KMLS:More info

Metar Taf Metar & Taf Last 4 Metars F.Rules Stats Wind Profile Meteogram Temp Stats Airport Information Weather charts Add Link Nearby VenuesMetar ALERT Operation Metar Decoded Social comments

AIRNAV info for KMLS